Historyczne dane pomiarowe

Dodano dane terminowe – wersja testowa.

Dane z okresu 1951-2019

Wersja bazy: 1.34 [2019-03-16, lista zmian], aktualizacja planowana na 2019-04-15

Dane meteo z obszaru Polski uzyskane na podstawie danych udostępnionych przez Instytut Meteorologii i Gospodarki Wodnej – Państwowy Instytut Badawczy.

 

Wybierz Datę:    

       

TemperaturaWilgotnośćWiatrCiśnienieOpadyŚniegCzas trwania zjawisk
 Stacja t tx tn tng RH VA  wxwx mslp ppp RRR   cm mm wxwxwxwxwxwxwx
1975-07-30 19.7 23.9 17.5- 82.8- 5.3 4.7---- 0.0------------
1975-07-29 18.8 20.5 17.8- 81.5- 5.0 10.0---- 0.0------------
1975-07-28 18.4 20.2 16.9- 85.3- 5.3 6.3---- 0.0------------
1975-07-27 16.8 18.5 14.5- 83.3- 7.0 12.3---- 0.2------------
1975-07-26 16.6 18.1 12.8- 81.8- 8.0 10.3---- 24.2------------
1975-07-25 18.0 19.9 15.4- 70.3- 6.3 4.3---- 0.1------------
1975-07-24 22.7 30.0 19.1- 72.0- 4.0 4.0---- 14.8------------
1975-07-23 19.9 24.3 14.4- 66.5- 7.0 4.3---- 0.0------------
1975-07-22 20.1 24.5 15.3- 78.0- 4.3 3.7---- 1.6------------
1975-07-21 19.9 23.2 14.9- 81.8- 3.7 3.7---- 0.0------------
1975-07-20 21.8 27.7 16.5- 68.0- 4.7 4.7---- 0.0------------
1975-07-19 20.2 25.7 16.4- 71.8- 7.3 5.0---- 0.7------------
1975-07-18 18.8 22.7 11.3- 64.8- 2.0 3.7---- 0.0------------
1975-07-17 18.2 20.7 16.3- 84.0- 6.0 7.3---- 5.4------------
1975-07-16 19.9 24.5 15.9- 72.8- 5.7 3.3---- 1.7------------
1975-07-15 21.2 27.0 16.5- 78.5- 6.3 2.7---- 2.9------------
1975-07-14 20.3 25.1 16.3- 76.8- 6.0 3.0---- 0.0------------
1975-07-13 20.5 23.4 17.9- 73.0- 5.0 5.0---- 0.0------------
1975-07-12 22.4 26.5 15.9- 72.3- 3.3 1.7---- 0.0------------
1975-07-11 22.9 26.6 17.6- 65.3- 6.7 3.0---- 0.1------------
1975-07-10 22.0 26.5 16.7- 63.3- 3.3 3.0---- 0.0------------
1975-07-09 19.2 23.8 12.2- 65.8- 0.0 4.7---- 0.0------------
1975-07-08 19.4 24.5 11.3- 61.8- 2.0 3.3---- 0.0------------
1975-07-07 17.5 23.4 7.3- 61.0- 0.3 4.0---- 0.0------------
1975-07-06 17.2 19.8 14.8- 66.3- 0.7 4.7---- 0.0------------
1975-07-05 16.4 18.2 15.0- 83.3- 4.0 6.7---- 0.0------------
1975-07-04 17.1 22.4 10.2- 76.0- 3.7 4.7---- 0.0------------
1975-07-03 17.3 21.4 10.4- 68.0- 3.0 3.3---- 0.0------------
1975-07-02 18.9 22.4 15.7- 74.0- 3.3 3.3---- 0.0------------
1975-07-01 17.7 20.6 13.9- 81.3- 6.3 4.0---- 0.0------------
1975-06-30 14.1 16.8 8.2- 84.0- 7.0 5.0---- 0.0------------
1975-06-29 13.1 14.6 11.1- 85.3- 7.3 8.3---- 1.6------------
1975-06-28 13.5 16.9 9.4- 72.0- 5.0 7.3---- 0.7------------
1975-06-27 16.2 18.9 13.5- 70.8- 5.3 8.0---- 0.0------------
1975-06-26 17.1 24.4 8.4- 60.3- 0.3 5.3---- 0.0------------
1975-06-25 15.8 19.6 12.8- 70.5- 3.7 10.7---- 0.0------------
1975-06-24 20.5 23.7 17.6- 83.0- 4.0 4.0---- 0.0------------
1975-06-23 20.5 23.3 16.3- 74.8- 2.7 5.3---- 0.0------------
1975-06-22 21.4 25.9 17.0- 82.5- 5.7 4.0---- 0.0------------
1975-06-21 20.2 24.4 16.9- 85.0- 4.3 5.0---- 4.5------------
1975-06-20 19.7 24.2 15.4- 81.0- 4.0 2.7---- 0.0------------
1975-06-19 15.9 20.7 8.9- 72.8- 5.7 5.7---- 0.5------------
1975-06-18 12.6 15.4 9.2- 84.8- 4.3 4.0---- 0.0------------
1975-06-17 12.8 19.4 11.2- 89.5- 7.3 6.7---- 18.6------------
1975-06-16 16.5 21.2 11.9- 87.0- 7.7 1.7---- 6.9------------
1975-06-15 15.2 18.6 12.2- 78.3- 7.0 4.3---- 1.6------------
1975-06-14 12.6 15.6 10.6- 77.0- 7.3 9.0---- 0.0------------
1975-06-13 17.5 24.6 11.3- 67.3- 6.0 5.0---- 0.3------------
1975-06-12 16.6 23.6 8.7- 72.8- 1.3 1.7---- 0.0------------
1975-06-11 14.8 17.4 12.1- 76.5- 1.0 7.7---- 0.0------------
1975-06-10 16.1 19.5 13.3- 84.0- 7.3 4.3---- 1.1------------
1975-06-09 18.5 23.5 13.3- 82.0- 5.0 6.0---- 0.7------------
1975-06-08 16.2 19.0 12.0- 73.8- 4.0 6.0---- 0.0------------
1975-06-07 13.7 15.9 11.3- 72.8- 4.3 9.0---- 0.0------------
1975-06-06 11.7 13.4 8.8- 79.3- 3.0 8.0---- 0.0------------
1975-06-05 10.8 14.6 6.8- 81.0- 4.7 5.3---- 0.0------------
1975-06-04 13.3 17.7 6.8- 60.8- 3.7 5.7---- 0.0------------
1975-06-03 12.3 15.2 8.6- 71.8- 5.7 3.3---- 0.0------------
1975-06-02 9.9 13.7 3.3- 69.0- 5.0 4.0---- 0.0------------
1975-06-01 9.0 13.3 2.8- 70.5- 4.0 3.3---- 0.0------------
449.9 ms

 

Źródłem pochodzenia danych jest Instytut Meteorologii i Gospodarki Wodnej – Państwowy Instytut Badawczy. Dane Instytutu Meteorologii i Gospodarki Wodnej – Państwowego Instytutu Badawczego zostały przetworzone.

Dane źródłowe można odnaleźć na stronie https://dane.imgw.pl